Time;durP1;ratioP1;P1;durP2;ratioP2;P2;SDS_P1;SDS_P2;PMS_P1;PMS_P2;Temp;Humidity;BMP_temperature;BMP_pressure;BME280_temperature;BME280_humidity;BME280_pressure;Samples;Min_cycle;Max_cycle;Signal;HPM_P1;HPM_P2
2023/08/07 00:02:23;;;;;;;9.98;2.38;;;;;;;12.20;100.00;100966.13;5020750;28;20064;-67
2023/08/07 00:04:49;;;;;;;9.85;2.30;;;;;;;12.26;100.00;100957.72;5022256;28;20033;-69
2023/08/07 00:07:14;;;;;;;11.20;2.50;;;;;;;12.26;100.00;100957.72;5019956;28;20511;-68
2023/08/07 00:09:39;;;;;;;11.90;2.67;;;;;;;12.25;100.00;100963.06;5019689;28;20103;-69
2023/08/07 00:12:05;;;;;;;15.13;2.72;;;;;;;12.26;100.00;100949.06;5022965;28;20063;-69
2023/08/07 00:14:30;;;;;;;11.02;2.17;;;;;;;12.34;100.00;100963.84;5020854;28;20040;-69
2023/08/07 00:16:56;;;;;;;9.23;2.53;;;;;;;12.26;100.00;100956.88;5024015;28;20037;-69
2023/08/07 00:19:21;;;;;;;11.82;2.58;;;;;;;12.33;100.00;100959.66;5024760;28;20037;-68
2023/08/07 00:21:47;;;;;;;17.60;2.92;;;;;;;12.35;100.00;100955.09;5021096;28;20038;-68
2023/08/07 00:24:12;;;;;;;22.00;3.75;;;;;;;12.43;100.00;100955.06;5023563;28;20040;-69
2023/08/07 00:26:38;;;;;;;19.58;3.00;;;;;;;12.34;100.00;100964.69;5024419;28;20075;-69
2023/08/07 00:29:03;;;;;;;13.32;3.83;;;;;;;12.30;100.00;100958.19;5021924;28;20071;-69
2023/08/07 00:31:31;;;;;;;5.70;2.55;;;;;;;12.32;100.00;100958.84;5027162;28;20039;-69
2023/08/07 00:33:57;;;;;;;18.23;2.65;;;;;;;12.41;100.00;100970.03;5022966;28;20087;-68
2023/08/07 00:36:23;;;;;;;12.48;2.40;;;;;;;12.35;100.00;100968.09;5026699;28;20040;-69
2023/08/07 00:38:48;;;;;;;16.35;3.00;;;;;;;12.34;100.00;100974.25;5023797;28;20459;-69
2023/08/07 00:41:17;;;;;;;13.30;3.25;;;;;;;12.23;100.00;100965.81;5008706;28;20420;-69
2023/08/07 00:43:45;;;;;;;12.02;2.55;;;;;;;12.21;100.00;100970.38;5026860;28;20052;-70
2023/08/07 00:46:11;;;;;;;13.32;2.67;;;;;;;12.21;100.00;100962.56;5024177;28;20034;-69
2023/08/07 00:48:36;;;;;;;14.43;2.50;;;;;;;12.15;100.00;100975.41;5022393;28;20059;-70
2023/08/07 00:51:04;;;;;;;17.58;3.25;;;;;;;12.18;100.00;100972.47;5022801;28;20057;-69
2023/08/07 00:53:30;;;;;;;12.38;2.50;;;;;;;12.23;100.00;100965.81;5007720;28;20049;-70
2023/08/07 00:55:57;;;;;;;16.38;2.80;;;;;;;12.18;100.00;100962.88;5020135;28;20037;-69
2023/08/07 00:58:23;;;;;;;12.05;3.80;;;;;;;12.29;100.00;100964.34;5024252;28;20037;-70
2023/08/07 01:00:49;;;;;;;11.75;2.85;;;;;;;12.30;100.00;100963.41;5006362;28;20414;-69
2023/08/07 01:03:14;;;;;;;14.70;3.25;;;;;;;12.31;100.00;100970.22;5020130;28;20084;-70
2023/08/07 01:05:40;;;;;;;12.35;2.33;;;;;;;12.21;100.00;100959.97;5024376;28;20045;-67
2023/08/07 01:08:05;;;;;;;12.52;2.30;;;;;;;12.26;100.00;100965.50;5002991;28;20049;-69
2023/08/07 01:10:54;;;;;;;16.10;2.85;;;;;;;12.20;100.00;100968.75;5022371;28;20022;-69
2023/08/07 01:13:37;;;;;;;11.27;2.97;;;;;;;12.26;100.00;100982.88;5021123;28;20541;-68
2023/08/07 01:16:10;;;;;;;20.40;3.80;;;;;;;12.27;100.00;100977.50;5022780;28;20037;-67
2023/08/07 01:18:36;;;;;;;;;;;;;;;12.19;100.00;100972.31;5022242;28;20040;-69
2023/08/07 01:21:03;;;;;;;11.77;2.67;;;;;;;12.21;100.00;100978.19;5018765;28;19968;-67
2023/08/07 01:23:28;;;;;;;17.35;3.65;;;;;;;12.25;100.00;100981.25;5018671;28;20508;-68
2023/08/07 01:25:54;;;;;;;16.20;3.30;;;;;;;12.18;100.00;100986.28;5019773;28;20030;-68
2023/08/07 01:28:28;;;;;;;12.45;3.08;;;;;;;12.24;100.00;100984.81;5012626;28;20763;-69
2023/08/07 01:30:58;;;;;;;15.13;4.32;;;;;;;12.28;100.00;100988.72;5005347;28;20029;-68
2023/08/07 01:33:33;;;;;;;18.15;3.53;;;;;;;12.24;100.00;100990.84;5014115;28;20467;-68
2023/08/07 01:36:06;;;;;;;13.07;2.95;;;;;;;12.24;100.00;100980.47;5007375;28;20038;-69
2023/08/07 01:38:33;;;;;;;14.35;2.88;;;;;;;12.18;100.00;100988.88;5023762;28;20022;-69
2023/08/07 01:41:00;;;;;;;15.02;3.13;;;;;;;12.17;100.00;100989.88;5008717;28;20040;-68
2023/08/07 01:43:26;;;;;;;12.05;2.83;;;;;;;12.22;100.00;100990.22;5024024;28;20033;-68
2023/08/07 01:45:52;;;;;;;9.13;2.60;;;;;;;12.18;100.00;100998.47;5009084;28;20061;-68
2023/08/07 01:48:18;;;;;;;11.50;2.85;;;;;;;12.12;100.00;100994.75;5029954;28;20047;-69
2023/08/07 01:50:43;;;;;;;11.32;3.10;;;;;;;12.13;100.00;101000.75;5009426;28;20033;-69
2023/08/07 01:53:09;;;;;;;22.73;3.55;;;;;;;12.07;100.00;100995.22;5008542;28;20064;-68
2023/08/07 01:55:34;;;;;;;9.52;2.70;;;;;;;12.14;100.00;100990.19;5004616;28;20032;-69
2023/08/07 01:58:00;;;;;;;11.10;2.90;;;;;;;12.06;100.00;100992.78;5009129;28;20431;-68
2023/08/07 02:00:25;;;;;;;11.80;2.70;;;;;;;12.11;100.00;100985.34;5025140;28;20561;-68
2023/08/07 02:02:51;;;;;;;9.63;2.58;;;;;;;12.05;100.00;100994.59;5034373;28;20029;-69
2023/08/07 02:05:17;;;;;;;12.98;2.90;;;;;;;12.13;100.00;100991.19;5028452;28;20041;-69
2023/08/07 02:07:43;;;;;;;8.20;2.65;;;;;;;12.07;100.00;100992.63;5029218;28;20048;-69
2023/08/07 02:10:08;;;;;;;11.35;2.85;;;;;;;12.03;100.00;101000.91;5011891;28;20022;-69
2023/08/07 02:12:35;;;;;;;12.25;2.83;;;;;;;12.02;100.00;100996.69;5009679;28;20086;-69
2023/08/07 02:15:00;;;;;;;15.18;3.08;;;;;;;12.05;100.00;100998.94;5008317;28;20030;-69
2023/08/07 02:17:32;;;;;;;9.73;2.63;;;;;;;12.04;100.00;100987.75;5027919;28;20044;-69
2023/08/07 02:19:58;;;;;;;15.88;3.08;;;;;;;12.03;100.00;101004.31;5025138;28;20046;-68
2023/08/07 02:22:24;;;;;;;15.57;3.25;;;;;;;12.05;100.00;100998.94;5026224;28;20514;-68
2023/08/07 02:24:49;;;;;;;13.00;2.83;;;;;;;12.00;100.00;100996.84;5027228;28;20404;-69
2023/08/07 02:27:14;;;;;;;11.40;3.55;;;;;;;12.03;100.00;101006.91;5022674;28;20037;-69
2023/08/07 02:29:40;;;;;;;14.85;3.08;;;;;;;12.08;100.00;101002.03;5028582;28;20022;-69
2023/08/07 02:32:06;;;;;;;13.18;3.58;;;;;;;12.04;100.00;101007.72;5025933;28;20695;-69
2023/08/07 02:34:31;;;;;;;18.23;2.67;;;;;;;12.13;100.00;101004.19;5026825;28;20039;-70
2023/08/07 02:36:58;;;;;;;16.55;2.75;;;;;;;12.11;100.00;101008.72;5024770;28;20034;-69
2023/08/07 02:39:24;;;;;;;14.95;3.22;;;;;;;12.09;100.00;101015.84;5024093;28;20055;-70
2023/08/07 02:41:50;;;;;;;14.95;2.90;;;;;;;12.12;100.00;101014.72;5025597;28;20503;-69
2023/08/07 02:44:17;;;;;;;12.68;2.63;;;;;;;12.11;100.00;101016.53;5024599;28;20036;-69
2023/08/07 02:46:43;;;;;;;7.78;2.47;;;;;;;12.07;100.00;101010.00;5021715;28;20025;-69
2023/08/07 02:49:08;;;;;;;13.93;2.75;;;;;;;12.02;100.00;101014.88;5003136;28;20502;-69
2023/08/07 02:51:34;;;;;;;11.82;3.08;;;;;;;12.04;100.00;101012.94;5022892;28;20036;-69
2023/08/07 02:53:59;;;;;;;15.57;3.85;;;;;;;12.04;100.00;101015.53;5020712;28;20048;-69
2023/08/07 02:56:24;;;;;;;12.75;2.53;;;;;;;12.15;100.00;101009.19;5020885;28;20043;-68
2023/08/07 02:58:50;;;;;;;18.15;3.53;;;;;;;12.14;100.00;101016.19;5011227;28;20554;-69
2023/08/07 03:01:15;;;;;;;13.95;3.53;;;;;;;12.10;100.00;101014.06;5005491;28;20049;-69
2023/08/07 03:03:41;;;;;;;13.00;2.15;;;;;;;12.10;100.00;101019.28;5004955;28;20037;-69
2023/08/07 03:06:06;;;;;;;18.20;2.40;;;;;;;12.04;100.00;101023.31;5009966;28;20480;-69
2023/08/07 03:08:32;;;;;;;10.02;3.67;;;;;;;12.08;100.00;101009.03;5027628;28;20094;-69
2023/08/07 03:10:58;;;;;;;11.45;3.00;;;;;;;12.07;100.00;101023.00;5011107;28;20152;-68
2023/08/07 03:13:25;;;;;;;13.93;3.85;;;;;;;11.99;100.00;101017.78;5032331;28;20030;-68
2023/08/07 03:16:01;;;;;;;13.65;2.97;;;;;;;11.92;100.00;101022.78;5008104;28;20032;-68
2023/08/07 03:18:28;;;;;;;12.40;3.10;;;;;;;12.01;100.00;101018.44;5022139;28;20128;-69
2023/08/07 03:20:55;;;;;;;11.65;2.75;;;;;;;11.94;100.00;101022.66;5009741;28;20048;-68
2023/08/07 03:23:22;;;;;;;19.92;3.38;;;;;;;11.93;100.00;101028.81;5026838;28;20021;-68
2023/08/07 03:25:48;;;;;;;12.13;2.70;;;;;;;11.99;100.00;101026.38;5026446;28;20487;-70
2023/08/07 03:28:13;;;;;;;11.02;2.97;;;;;;;11.93;100.00;101024.44;5028774;28;20071;-69
2023/08/07 03:30:39;;;;;;;18.27;2.65;;;;;;;11.90;100.00;101013.53;5023549;28;20412;-67
2023/08/07 03:33:06;;;;;;;7.72;2.63;;;;;;;11.93;100.00;101011.44;5023848;28;20029;-69
2023/08/07 03:35:32;;;;;;;10.02;2.65;;;;;;;11.93;100.00;101008.03;5022071;28;20032;-69
2023/08/07 03:37:59;;;;;;;16.30;2.72;;;;;;;11.92;100.00;101015.00;5023690;28;20032;-68
2023/08/07 03:40:25;;;;;;;22.60;3.08;;;;;;;11.95;100.00;101012.09;5029256;28;20038;-69
2023/08/07 03:42:50;;;;;;;8.85;2.33;;;;;;;11.91;100.00;101021.19;5008497;28;20017;-68
2023/08/07 03:45:16;;;;;;;15.95;4.13;;;;;;;11.96;100.00;101021.53;5023528;28;20029;-69
2023/08/07 03:47:41;;;;;;;12.63;2.92;;;;;;;11.88;100.00;101018.88;5026633;28;20067;-69
2023/08/07 03:50:07;;;;;;;15.30;2.92;;;;;;;11.88;100.00;101024.91;5023957;28;20037;-69
2023/08/07 03:52:33;;;;;;;15.32;2.78;;;;;;;11.93;100.00;101019.25;5021404;28;20041;-68
2023/08/07 03:54:59;;;;;;;12.90;2.95;;;;;;;11.94;100.00;101030.44;5006367;28;20048;-68
2023/08/07 03:57:25;;;;;;;12.50;2.80;;;;;;;11.98;100.00;101016.97;5025309;28;20044;-69
2023/08/07 03:59:50;;;;;;;20.70;3.72;;;;;;;11.92;100.00;101022.00;5024439;28;20046;-68
2023/08/07 04:02:16;;;;;;;11.90;3.15;;;;;;;11.97;100.00;101024.94;5026789;28;20099;-68
2023/08/07 04:04:41;;;;;;;15.13;4.07;;;;;;;11.93;100.00;101023.63;5025205;28;20040;-69
2023/08/07 04:07:07;;;;;;;13.57;2.92;;;;;;;12.01;100.00;101019.25;5005459;28;20075;-68
2023/08/07 04:09:33;;;;;;;15.63;2.92;;;;;;;11.91;100.00;101018.59;5026743;28;20661;-69
2023/08/07 04:11:58;;;;;;;11.40;3.25;;;;;;;11.96;100.00;101029.31;5024013;28;20061;-69
2023/08/07 04:14:24;;;;;;;13.68;3.58;;;;;;;11.94;100.00;101033.03;5028138;28;20029;-69
2023/08/07 04:16:49;;;;;;;16.13;3.60;;;;;;;11.99;100.00;101025.59;5033737;28;20033;-69
2023/08/07 04:19:15;;;;;;;14.32;3.20;;;;;;;11.94;100.00;101023.47;5006700;28;20511;-68
2023/08/07 04:21:41;;;;;;;16.90;3.13;;;;;;;12.01;100.00;101021.03;5028709;28;20036;-68
2023/08/07 04:24:10;;;;;;;10.50;3.05;;;;;;;12.00;100.00;101019.44;5007265;28;20096;-68
2023/08/07 04:26:37;;;;;;;10.38;3.15;;;;;;;11.95;100.00;101019.88;5021999;28;20032;-69
2023/08/07 04:29:03;;;;;;;15.63;2.90;;;;;;;11.99;100.00;101025.59;5024623;28;20025;-69
2023/08/07 04:31:30;;;;;;;19.90;4.38;;;;;;;11.98;100.00;101023.94;5007880;28;20620;-69
2023/08/07 04:33:56;;;;;;;10.63;3.08;;;;;;;11.85;100.00;101027.81;5026114;28;20026;-68
2023/08/07 04:36:22;;;;;;;16.75;3.60;;;;;;;11.85;100.00;101033.00;5020064;28;20033;-68
2023/08/07 04:38:47;;;;;;;13.90;3.72;;;;;;;11.97;100.00;101028.34;5024865;28;20520;-68
2023/08/07 04:41:12;;;;;;;16.40;3.10;;;;;;;12.10;100.00;101022.69;5022224;28;20041;-68
2023/08/07 04:43:38;;;;;;;12.38;3.08;;;;;;;12.03;100.00;101022.50;5024374;28;20040;-68
2023/08/07 04:46:03;;;;;;;14.40;3.33;;;;;;;12.05;100.00;101024.94;5022347;28;20373;-68
2023/08/07 04:48:29;;;;;;;20.10;3.58;;;;;;;12.10;100.00;101021.88;5024400;28;20036;-69
2023/08/07 04:50:55;;;;;;;9.50;2.90;;;;;;;11.96;100.00;101024.13;5024173;28;20064;-69
2023/08/07 04:53:21;;;;;;;14.30;4.07;;;;;;;11.94;100.00;101028.69;5017997;28;20157;-68
2023/08/07 04:55:46;;;;;;;10.63;3.50;;;;;;;12.02;100.00;101030.47;5024918;28;20418;-68
2023/08/07 04:58:12;;;;;;;8.10;2.67;;;;;;;12.12;100.00;101025.94;5026479;28;20092;-68
2023/08/07 05:00:37;;;;;;;10.07;3.80;;;;;;;12.07;100.00;101025.59;5029138;28;20037;-69
2023/08/07 05:03:02;;;;;;;16.02;3.17;;;;;;;12.00;100.00;101035.81;5024416;28;20029;-68
2023/08/07 05:05:28;;;;;;;11.45;3.40;;;;;;;12.05;100.00;101046.56;5028265;28;20183;-68
2023/08/07 05:07:54;;;;;;;10.77;3.22;;;;;;;12.14;100.00;101033.56;5025824;28;20045;-68
2023/08/07 05:10:20;;;;;;;15.43;3.28;;;;;;;12.07;100.00;101033.38;5027943;28;20037;-68
2023/08/07 05:12:45;;;;;;;16.63;3.17;;;;;;;12.19;100.00;101034.72;5029411;28;20041;-68
2023/08/07 05:15:11;;;;;;;18.80;4.82;;;;;;;12.15;100.00;101037.78;5027816;28;20028;-69
2023/08/07 05:17:36;;;;;;;15.77;3.90;;;;;;;12.12;100.00;101033.72;5026278;28;20403;-68
2023/08/07 05:20:02;;;;;;;18.17;3.70;;;;;;;12.22;100.00;101030.97;5030329;28;20033;-69
2023/08/07 05:22:28;;;;;;;11.85;3.25;;;;;;;12.11;100.00;101046.88;5026625;28;20191;-68
2023/08/07 05:24:53;;;;;;;19.17;4.68;;;;;;;12.14;100.00;101043.97;5031328;28;20044;-68
2023/08/07 05:27:18;;;;;;;21.90;3.90;;;;;;;12.16;100.00;101040.22;5026790;28;20029;-69
2023/08/07 05:29:44;;;;;;;18.83;3.92;;;;;;;12.14;100.00;101038.78;5027625;28;20598;-68
2023/08/07 05:32:14;;;;;;;17.05;3.50;;;;;;;12.13;100.00;101042.31;5013407;28;20584;-67
2023/08/07 05:34:40;;;;;;;16.05;3.90;;;;;;;12.10;100.00;101053.88;5029540;28;20051;-69
2023/08/07 05:37:06;;;;;;;13.73;3.70;;;;;;;12.18;100.00;101051.28;5027430;28;20480;-69
2023/08/07 05:39:32;;;;;;;13.80;3.78;;;;;;;12.19;100.00;101042.50;5029522;28;20037;-69
2023/08/07 05:41:57;;;;;;;11.32;3.20;;;;;;;12.24;100.00;101045.47;5030103;28;20048;-69
2023/08/07 05:44:26;;;;;;;16.67;3.38;;;;;;;12.27;100.00;101054.72;5030647;28;20056;-69
2023/08/07 05:46:52;;;;;;;15.13;3.33;;;;;;;12.28;100.00;101045.91;5025536;28;20029;-69
2023/08/07 05:49:17;;;;;;;14.52;3.58;;;;;;;12.26;100.00;101048.72;5027091;28;20052;-68
2023/08/07 05:51:43;;;;;;;14.70;3.40;;;;;;;12.19;100.00;101057.31;5022874;28;20133;-69
2023/08/07 05:54:08;;;;;;;10.98;3.15;;;;;;;12.19;100.00;101065.09;5026031;28;20419;-68
2023/08/07 05:56:34;;;;;;;19.77;4.20;;;;;;;12.17;100.00;101067.88;5028322;28;20033;-69
2023/08/07 05:58:59;;;;;;;11.65;4.05;;;;;;;12.15;100.00;101068.97;5024157;28;20030;-68
2023/08/07 06:01:30;;;;;;;9.63;3.50;;;;;;;12.20;100.00;101070.13;5024056;28;20086;-69
2023/08/07 06:03:56;;;;;;;16.20;3.65;;;;;;;12.14;100.00;101068.16;5032091;28;20094;-69
2023/08/07 06:06:21;;;;;;;18.95;3.97;;;;;;;12.17;100.00;101078.25;5032318;28;20594;-70
2023/08/07 06:08:47;;;;;;;11.75;3.28;;;;;;;12.22;100.00;101078.59;5024772;28;20396;-68
2023/08/07 06:11:12;;;;;;;12.10;3.83;;;;;;;12.15;100.00;101076.78;5026126;28;20140;-69
2023/08/07 06:13:40;;;;;;;10.07;3.50;;;;;;;12.12;100.00;101085.72;5027425;28;20040;-68
2023/08/07 06:16:06;;;;;;;15.48;3.53;;;;;;;12.22;100.00;101093.38;5029658;28;20502;-68
2023/08/07 06:18:31;;;;;;;10.25;3.60;;;;;;;12.25;100.00;101099.06;5024603;28;20037;-69
2023/08/07 06:20:56;;;;;;;13.63;3.67;;;;;;;12.18;100.00;101092.88;5025065;28;20068;-68
2023/08/07 06:23:22;;;;;;;14.13;3.53;;;;;;;12.13;100.00;101092.56;5024867;28;20045;-69
2023/08/07 06:25:47;;;;;;;14.57;3.92;;;;;;;12.15;100.00;101107.97;5026122;28;20033;-70
2023/08/07 06:28:13;;;;;;;10.10;3.67;;;;;;;12.08;100.00;101113.00;5017024;28;20033;-68
2023/08/07 06:30:38;;;;;;;18.25;4.57;;;;;;;11.99;100.00;101109.56;5026919;28;20038;-70
2023/08/07 06:33:04;;;;;;;15.07;5.45;;;;;;;12.03;100.00;101112.66;5026741;28;20034;-72
2023/08/07 06:35:29;;;;;;;12.05;4.15;;;;;;;12.08;100.00;101118.19;5024591;28;20033;-69
2023/08/07 06:37:55;;;;;;;7.82;3.75;;;;;;;12.08;100.00;101113.00;5026662;28;20036;-70
2023/08/07 06:40:20;;;;;;;23.67;6.32;;;;;;;12.14;100.00;101127.97;5021641;28;21183;-69
2023/08/07 06:42:45;;;;;;;16.88;4.07;;;;;;;12.13;100.00;101121.16;5022774;28;20149;-70
2023/08/07 06:45:11;;;;;;;22.15;4.57;;;;;;;12.10;100.00;101131.84;5024645;28;20037;-69
2023/08/07 06:47:36;;;;;;;12.13;3.80;;;;;;;12.12;100.00;101127.31;5030267;28;20033;-70
2023/08/07 06:50:02;;;;;;;14.57;3.55;;;;;;;12.05;100.00;101140.13;5026043;28;20048;-70
2023/08/07 06:52:27;;;;;;;21.15;4.15;;;;;;;12.13;100.00;101135.91;5008524;28;20518;-69
2023/08/07 06:54:53;;;;;;;18.95;4.32;;;;;;;12.16;100.00;101138.19;5021670;28;20060;-68
2023/08/07 06:57:18;;;;;;;13.23;3.90;;;;;;;12.18;100.00;101138.84;5026174;28;20407;-68
2023/08/07 06:59:44;;;;;;;12.93;4.00;;;;;;;12.15;100.00;101133.97;5025850;28;20049;-69
2023/08/07 07:02:09;;;;;;;16.63;4.05;;;;;;;12.11;100.00;101143.06;5024975;28;20052;-70
2023/08/07 07:04:36;;;;;;;10.65;3.60;;;;;;;12.19;100.00;101138.69;5023952;28;20053;-70
2023/08/07 07:07:02;;;;;;;18.83;4.05;;;;;;;12.18;100.00;101137.06;5027581;28;20087;-69
2023/08/07 07:09:28;;;;;;;21.52;3.78;;;;;;;12.20;100.00;101147.31;5023491;28;20041;-70
2023/08/07 07:11:55;;;;;;;17.10;3.85;;;;;;;12.13;100.00;101141.94;5026762;28;20033;-69
2023/08/07 07:14:21;;;;;;;10.68;4.07;;;;;;;12.29;100.00;101142.97;5025838;28;20056;-69
2023/08/07 07:16:46;;;;;;;22.70;6.20;;;;;;;12.35;100.00;101147.50;5026384;28;20404;-69
2023/08/07 07:19:12;;;;;;;16.98;4.38;;;;;;;12.27;100.00;101151.72;5028709;28;20078;-69
2023/08/07 07:21:37;;;;;;;16.00;4.47;;;;;;;12.26;100.00;101152.69;5024601;28;20052;-68
2023/08/07 07:24:03;;;;;;;16.08;3.67;;;;;;;12.25;100.00;101160.66;5025146;28;20025;-68
2023/08/07 07:26:28;;;;;;;14.95;3.90;;;;;;;12.30;100.00;101160.16;5027950;28;20644;-69
2023/08/07 07:28:55;;;;;;;19.75;4.55;;;;;;;12.36;100.00;101160.38;5025184;28;20052;-68
2023/08/07 07:31:20;;;;;;;10.73;3.22;;;;;;;12.40;100.00;101163.47;5021669;28;20038;-68
2023/08/07 07:33:46;;;;;;;14.93;4.20;;;;;;;12.32;100.00;101166.03;5025949;28;20515;-68
2023/08/07 07:36:16;;;;;;;12.25;3.50;;;;;;;12.42;100.00;101166.72;5025412;28;20056;-70
2023/08/07 07:38:43;;;;;;;12.60;3.28;;;;;;;12.39;100.00;101173.03;5025546;28;20056;-68
2023/08/07 07:41:11;;;;;;;15.75;3.97;;;;;;;12.35;100.00;101171.72;5029158;28;20080;-69
2023/08/07 07:43:37;;;;;;;17.65;3.38;;;;;;;12.39;100.00;101178.22;5022341;28;20487;-69
2023/08/07 07:46:03;;;;;;;13.05;3.70;;;;;;;12.43;100.00;101186.53;5025265;28;20037;-68
2023/08/07 07:48:28;;;;;;;16.60;3.20;;;;;;;12.57;100.00;101180.72;5023808;28;20052;-68
2023/08/07 07:51:01;;;;;;;15.27;4.20;;;;;;;12.49;100.00;101193.72;5023959;28;20030;-69
2023/08/07 07:53:27;;;;;;;16.35;4.40;;;;;;;12.46;100.00;101194.03;5021558;28;20033;-68
2023/08/07 07:55:53;;;;;;;12.68;3.28;;;;;;;12.46;100.00;101184.44;5023173;28;20041;-69
2023/08/07 07:58:20;;;;;;;16.60;3.35;;;;;;;12.53;100.00;101194.22;5023953;28;20087;-70
2023/08/07 08:00:45;;;;;;;18.05;3.65;;;;;;;12.57;100.00;101196.34;5022692;28;20088;-69
2023/08/07 08:03:12;;;;;;;17.17;3.33;;;;;;;12.56;100.00;101197.28;5026661;28;20479;-70
2023/08/07 08:05:38;;;;;;;13.45;3.90;;;;;;;12.56;100.00;101201.69;5021826;28;20037;-69
2023/08/07 08:08:04;;;;;;;14.98;3.50;;;;;;;12.60;100.00;101200.41;5026543;28;20510;-69
2023/08/07 08:10:30;;;;;;;12.13;3.28;;;;;;;12.69;100.00;101206.44;5026500;28;20069;-69
2023/08/07 08:12:56;;;;;;;14.55;3.10;;;;;;;12.85;100.00;101216.88;5029210;28;20034;-69
2023/08/07 08:15:22;;;;;;;10.73;2.88;;;;;;;12.85;100.00;101214.28;5025765;28;20037;-69
2023/08/07 08:17:48;;;;;;;11.73;2.80;;;;;;;12.85;100.00;101216.88;5026476;28;20048;-69
2023/08/07 08:20:23;;;;;;;10.68;3.00;;;;;;;12.94;100.00;101218.53;5019217;28;20038;-69
2023/08/07 08:22:48;;;;;;;13.43;3.00;;;;;;;13.07;100.00;101220.63;5020809;28;20041;-69
2023/08/07 08:25:14;;;;;;;15.18;3.20;;;;;;;13.16;100.00;101227.47;5024975;28;20037;-70
2023/08/07 08:27:40;;;;;;;11.93;2.45;;;;;;;13.21;100.00;101224.38;5025350;28;20033;-68
2023/08/07 08:30:06;;;;;;;11.63;2.50;;;;;;;13.27;100.00;101233.34;5023957;28;20032;-69
2023/08/07 08:32:32;;;;;;;11.95;2.83;;;;;;;13.32;100.00;101225.88;5022230;28;20092;-69
2023/08/07 08:34:57;;;;;;;12.60;2.63;;;;;;;13.22;100.00;101232.03;5023173;28;20447;-68
2023/08/07 08:37:23;;;;;;;12.85;2.70;;;;;;;13.30;100.00;101240.81;5023826;28;20475;-68
2023/08/07 08:39:49;;;;;;;10.80;3.15;;;;;;;13.35;100.00;101247.19;5022725;28;20066;-68
2023/08/07 08:42:15;;;;;;;14.40;2.20;;;;;;;13.22;100.00;101232.03;5025176;28;20033;-68
2023/08/07 08:44:52;;;;;;;11.75;1.98;;;;;;;13.30;100.00;101246.00;5025153;28;20118;-68
2023/08/07 08:47:18;;;;;;;22.40;7.47;;;;;;;13.49;100.00;101250.13;5025440;28;20064;-69
2023/08/07 08:49:47;;;;;;;9.50;2.45;;;;;;;13.62;100.00;101253.84;5024060;28;21075;-69
2023/08/07 08:52:13;;;;;;;13.63;2.20;;;;;;;13.59;100.00;101255.97;5024598;28;20091;-69
2023/08/07 08:54:40;;;;;;;13.43;2.47;;;;;;;13.71;100.00;101256.44;5020549;28;20044;-69
2023/08/07 08:57:06;;;;;;;12.82;2.53;;;;;;;13.84;100.00;101256.75;5020847;28;20476;-68
2023/08/07 08:59:32;;;;;;;9.30;2.17;;;;;;;13.90;100.00;101263.91;5021527;28;20048;-68
2023/08/07 09:01:58;;;;;;;13.23;2.63;;;;;;;13.94;100.00;101269.63;5022748;28;20036;-67
2023/08/07 09:04:23;;;;;;;8.57;2.63;;;;;;;13.89;100.00;101271.91;5024459;28;20044;-69
2023/08/07 09:06:49;;;;;;;8.55;1.98;;;;;;;13.97;100.00;101267.47;5020886;28;20037;-68
2023/08/07 09:09:19;;;;;;;9.57;1.48;;;;;;;13.93;100.00;101275.78;5022862;28;20080;-68
2023/08/07 09:11:46;;;;;;;12.73;1.70;;;;;;;13.93;100.00;101276.59;5019658;28;20071;-68
2023/08/07 09:14:16;;;;;;;12.30;3.08;;;;;;;14.02;100.00;101283.44;5024484;28;20033;-68
2023/08/07 09:16:41;;;;;;;8.50;2.20;;;;;;;14.77;100.00;101279.56;5022195;28;21231;-68
2023/08/07 09:19:07;;;;;;;11.63;2.13;;;;;;;14.87;100.00;101268.91;5021026;28;20069;-68
2023/08/07 09:21:34;;;;;;;12.82;2.22;;;;;;;15.06;100.00;101277.28;5024925;28;20056;-68
2023/08/07 09:23:59;;;;;;;4.63;1.67;;;;;;;15.34;100.00;101269.72;5021814;28;20109;-69
2023/08/07 09:26:25;;;;;;;9.75;1.83;;;;;;;15.43;100.00;101276.50;5023253;28;20025;-69
2023/08/07 09:28:53;;;;;;;11.95;2.38;;;;;;;15.30;100.00;101274.50;5020019;28;20030;-69
2023/08/07 09:31:18;;;;;;;15.30;2.17;;;;;;;15.54;100.00;101275.28;5020993;28;20427;-67
2023/08/07 09:33:48;;;;;;;13.88;2.30;;;;;;;15.69;100.00;101280.50;5025120;28;20112;-68
2023/08/07 09:36:13;;;;;;;7.30;1.52;;;;;;;15.58;97.80;101282.59;5023389;28;20671;-68
2023/08/07 09:38:38;;;;;;;10.07;1.60;;;;;;;15.82;98.34;101279.94;5021013;28;20029;-69
2023/08/07 09:41:04;;;;;;;11.65;1.85;;;;;;;16.40;95.98;101280.91;5022857;28;20490;-68
2023/08/07 09:43:34;;;;;;;13.10;1.98;;;;;;;16.61;92.58;101274.91;5020367;28;20416;-68
2023/08/07 09:46:03;;;;;;;9.73;1.75;;;;;;;16.70;91.86;101275.63;5024511;28;20041;-68
2023/08/07 09:48:29;;;;;;;6.63;1.90;;;;;;;17.15;87.84;101275.50;5028648;28;20037;-68
2023/08/07 09:50:58;;;;;;;8.10;1.70;;;;;;;17.30;83.36;101276.25;5024128;28;20022;-68
2023/08/07 09:53:27;;;;;;;13.35;2.30;;;;;;;17.83;83.49;101281.06;5027639;28;20034;-68
2023/08/07 09:55:56;;;;;;;16.05;1.88;;;;;;;18.14;82.17;101285.94;5031113;28;20047;-70
2023/08/07 09:58:22;;;;;;;7.47;1.60;;;;;;;18.34;78.27;101274.72;5025332;28;21225;-69
2023/08/07 10:00:48;;;;;;;11.15;2.03;;;;;;;18.56;78.42;101278.84;5028042;28;20032;-69
2023/08/07 10:03:14;;;;;;;5.72;1.80;;;;;;;18.59;75.68;101267.94;5026882;28;20021;-70
2023/08/07 10:05:42;;;;;;;11.40;2.17;;;;;;;18.78;76.41;101279.50;5028322;28;20038;-68
2023/08/07 10:08:07;;;;;;;8.43;1.73;;;;;;;18.80;74.77;101274.06;5026349;28;20033;-71
2023/08/07 10:10:34;;;;;;;10.68;1.60;;;;;;;19.00;74.69;101274.91;5023115;28;20030;-70
2023/08/07 10:13:03;;;;;;;10.05;1.33;;;;;;;18.76;72.59;101265.78;5025960;28;20395;-68
2023/08/07 10:15:32;;;;;;;8.68;1.60;;;;;;;18.98;72.82;101274.31;5027745;28;20131;-68
2023/08/07 10:17:58;;;;;;;7.85;1.75;;;;;;;18.84;69.40;101273.47;5026895;28;20083;-70
2023/08/07 10:20:26;;;;;;;6.47;1.48;;;;;;;18.76;74.13;101270.19;5026014;28;20029;-70
2023/08/07 10:22:52;;;;;;;7.57;1.30;;;;;;;18.60;68.89;101266.91;5024310;28;20056;-69
2023/08/07 10:25:24;;;;;;;4.97;1.20;;;;;;;18.92;72.12;101282.19;5025959;28;20044;-69
2023/08/07 10:27:52;;;;;;;6.80;1.10;;;;;;;19.24;68.61;101275.34;5027393;28;20044;-68
2023/08/07 10:30:20;;;;;;;5.43;1.20;;;;;;;19.25;65.10;101263.84;5023432;28;20026;-70
2023/08/07 10:32:48;;;;;;;8.85;1.65;;;;;;;19.42;66.56;101272.09;5016249;28;20412;-68
2023/08/07 10:35:33;;;;;;;4.90;1.50;;;;;;;19.57;62.93;101267.47;5025613;28;20135;-69
2023/08/07 10:38:09;;;;;;;3.58;1.17;;;;;;;19.79;62.77;101269.88;5020933;28;20522;-70
2023/08/07 10:41:02;;;;;;;4.32;1.15;;;;;;;19.80;61.97;101274.94;5023110;28;21784;-70
2023/08/07 10:43:28;;;;;;;6.03;1.45;;;;;;;19.77;58.02;101262.19;5024506;28;20037;-70
2023/08/07 10:45:59;;;;;;;2.30;1.10;;;;;;;19.69;56.95;101270.25;5025852;28;20041;-70
2023/08/07 10:48:26;;;;;;;5.63;0.82;;;;;;;19.80;57.75;101279.38;5022868;28;20132;-69
2023/08/07 10:50:54;;;;;;;6.95;1.50;;;;;;;19.90;59.70;101273.69;5024814;28;20149;-70
2023/08/07 10:53:31;;;;;;;9.52;1.50;;;;;;;19.89;58.29;101279.97;5023205;28;20150;-71
2023/08/07 10:55:58;;;;;;;5.00;1.38;;;;;;;20.00;57.63;101281.97;5025996;28;20675;-71
2023/08/07 10:58:30;;;;;;;7.45;1.30;;;;;;;20.15;58.38;101285.16;5024985;28;20283;-70
2023/08/07 11:01:41;;;;;;;5.78;1.52;;;;;;;19.98;54.62;101289.25;5022355;28;20128;-71
2023/08/07 11:04:09;;;;;;;5.43;1.05;;;;;;;19.72;55.15;101297.97;5022756;28;20572;-71
2023/08/07 11:06:36;;;;;;;10.00;1.25;;;;;;;19.59;53.56;101288.28;5025201;28;20126;-70
2023/08/07 11:09:04;;;;;;;6.10;1.42;;;;;;;19.47;52.91;101300.44;5021804;28;20045;-70
2023/08/07 11:11:39;;;;;;;6.63;1.88;;;;;;;19.74;53.90;101298.59;5023428;28;20086;-68